sensor_id;sensor_type;location;lat;lon;timestamp;P1;durP1;ratioP1;P2;durP2;ratioP2
23302;SDS011;11820;48.738;9.092;2023-06-26T00:00:31;8.30;;;7.43;;
23302;SDS011;11820;48.738;9.092;2023-06-26T00:02:57;7.33;;;6.63;;
23302;SDS011;11820;48.738;9.092;2023-06-26T00:05:23;10.73;;;7.00;;
23302;SDS011;11820;48.738;9.092;2023-06-26T00:07:48;8.10;;;7.27;;
23302;SDS011;11820;48.738;9.092;2023-06-26T00:10:13;7.70;;;6.90;;
23302;SDS011;11820;48.738;9.092;2023-06-26T00:12:39;7.83;;;7.13;;
23302;SDS011;11820;48.738;9.092;2023-06-26T00:15:04;7.73;;;7.03;;
23302;SDS011;11820;48.738;9.092;2023-06-26T00:17:30;9.17;;;7.60;;
23302;SDS011;11820;48.738;9.092;2023-06-26T00:19:55;9.10;;;8.20;;
23302;SDS011;11820;48.738;9.092;2023-06-26T00:22:21;10.87;;;8.53;;
23302;SDS011;11820;48.738;9.092;2023-06-26T00:24:46;10.00;;;9.00;;
23302;SDS011;11820;48.738;9.092;2023-06-26T00:27:12;8.13;;;7.33;;
23302;SDS011;11820;48.738;9.092;2023-06-26T00:29:37;7.60;;;6.90;;
23302;SDS011;11820;48.738;9.092;2023-06-26T00:32:03;8.80;;;7.90;;
23302;SDS011;11820;48.738;9.092;2023-06-26T00:34:29;8.67;;;7.90;;
23302;SDS011;11820;48.738;9.092;2023-06-26T00:36:54;8.43;;;7.63;;
23302;SDS011;11820;48.738;9.092;2023-06-26T00:39:20;7.67;;;6.80;;
23302;SDS011;11820;48.738;9.092;2023-06-26T00:41:45;8.40;;;7.60;;
23302;SDS011;11820;48.738;9.092;2023-06-26T00:44:10;7.87;;;6.73;;
23302;SDS011;11820;48.738;9.092;2023-06-26T00:46:35;7.63;;;6.93;;
23302;SDS011;11820;48.738;9.092;2023-06-26T00:49:02;7.70;;;7.00;;
23302;SDS011;11820;48.738;9.092;2023-06-26T00:51:28;8.87;;;7.33;;
23302;SDS011;11820;48.738;9.092;2023-06-26T00:53:54;7.10;;;6.50;;
23302;SDS011;11820;48.738;9.092;2023-06-26T00:56:20;6.97;;;6.37;;
23302;SDS011;11820;48.738;9.092;2023-06-26T00:58:46;12.43;;;7.20;;
23302;SDS011;11820;48.738;9.092;2023-06-26T01:01:12;7.77;;;7.07;;
23302;SDS011;11820;48.738;9.092;2023-06-26T01:03:42;8.30;;;7.50;;
23302;SDS011;11820;48.738;9.092;2023-06-26T01:06:08;7.90;;;7.10;;
23302;SDS011;11820;48.738;9.092;2023-06-26T01:08:36;7.90;;;6.90;;
23302;SDS011;11820;48.738;9.092;2023-06-26T01:11:03;7.63;;;6.93;;
23302;SDS011;11820;48.738;9.092;2023-06-26T01:13:29;7.73;;;7.03;;
23302;SDS011;11820;48.738;9.092;2023-06-26T01:15:55;8.47;;;7.20;;
23302;SDS011;11820;48.738;9.092;2023-06-26T01:18:22;7.50;;;6.80;;
23302;SDS011;11820;48.738;9.092;2023-06-26T01:20:48;7.27;;;6.57;;
23302;SDS011;11820;48.738;9.092;2023-06-26T01:23:26;7.27;;;6.57;;
23302;SDS011;11820;48.738;9.092;2023-06-26T01:28:44;6.97;;;6.27;;
23302;SDS011;11820;48.738;9.092;2023-06-26T01:31:11;7.03;;;6.40;;
23302;SDS011;11820;48.738;9.092;2023-06-26T01:33:37;7.63;;;6.80;;
23302;SDS011;11820;48.738;9.092;2023-06-26T01:36:03;8.37;;;7.57;;
23302;SDS011;11820;48.738;9.092;2023-06-26T01:38:29;6.40;;;5.80;;
23302;SDS011;11820;48.738;9.092;2023-06-26T01:40:55;7.30;;;6.60;;
23302;SDS011;11820;48.738;9.092;2023-06-26T01:43:24;7.90;;;7.10;;
23302;SDS011;11820;48.738;9.092;2023-06-26T01:46:03;7.50;;;6.73;;
23302;SDS011;11820;48.738;9.092;2023-06-26T01:48:34;8.27;;;7.03;;
23302;SDS011;11820;48.738;9.092;2023-06-26T01:51:05;8.43;;;7.47;;
23302;SDS011;11820;48.738;9.092;2023-06-26T01:53:33;8.93;;;7.47;;
23302;SDS011;11820;48.738;9.092;2023-06-26T01:56:06;10.80;;;7.50;;
23302;SDS011;11820;48.738;9.092;2023-06-26T01:58:34;8.17;;;7.37;;
23302;SDS011;11820;48.738;9.092;2023-06-26T02:01:02;7.73;;;7.03;;
23302;SDS011;11820;48.738;9.092;2023-06-26T02:03:27;8.00;;;7.20;;
23302;SDS011;11820;48.738;9.092;2023-06-26T02:05:53;7.63;;;6.93;;
23302;SDS011;11820;48.738;9.092;2023-06-26T02:08:18;7.83;;;7.03;;
23302;SDS011;11820;48.738;9.092;2023-06-26T02:10:43;8.53;;;7.63;;
23302;SDS011;11820;48.738;9.092;2023-06-26T02:13:08;8.40;;;7.60;;
23302;SDS011;11820;48.738;9.092;2023-06-26T02:15:34;8.10;;;7.27;;
23302;SDS011;11820;48.738;9.092;2023-06-26T02:17:59;8.47;;;7.43;;
23302;SDS011;11820;48.738;9.092;2023-06-26T02:20:24;7.93;;;7.23;;
23302;SDS011;11820;48.738;9.092;2023-06-26T02:22:50;7.53;;;6.73;;
23302;SDS011;11820;48.738;9.092;2023-06-26T02:25:17;8.27;;;6.80;;
23302;SDS011;11820;48.738;9.092;2023-06-26T02:27:43;7.20;;;6.50;;
23302;SDS011;11820;48.738;9.092;2023-06-26T02:30:08;8.33;;;7.20;;
23302;SDS011;11820;48.738;9.092;2023-06-26T02:32:34;6.90;;;6.30;;
23302;SDS011;11820;48.738;9.092;2023-06-26T02:34:59;8.10;;;7.00;;
23302;SDS011;11820;48.738;9.092;2023-06-26T02:37:25;7.50;;;6.70;;
23302;SDS011;11820;48.738;9.092;2023-06-26T02:39:50;7.40;;;6.27;;
23302;SDS011;11820;48.738;9.092;2023-06-26T02:42:15;8.57;;;7.30;;
23302;SDS011;11820;48.738;9.092;2023-06-26T02:44:41;8.83;;;7.00;;
23302;SDS011;11820;48.738;9.092;2023-06-26T02:47:06;8.37;;;7.53;;
23302;SDS011;11820;48.738;9.092;2023-06-26T02:49:31;7.20;;;6.50;;
23302;SDS011;11820;48.738;9.092;2023-06-26T02:51:57;7.00;;;6.40;;
23302;SDS011;11820;48.738;9.092;2023-06-26T02:54:22;7.67;;;6.93;;
23302;SDS011;11820;48.738;9.092;2023-06-26T02:56:47;9.23;;;7.47;;
23302;SDS011;11820;48.738;9.092;2023-06-26T02:59:13;7.40;;;6.70;;
23302;SDS011;11820;48.738;9.092;2023-06-26T03:01:38;7.53;;;6.83;;
23302;SDS011;11820;48.738;9.092;2023-06-26T03:04:04;7.07;;;6.47;;
23302;SDS011;11820;48.738;9.092;2023-06-26T03:06:29;7.23;;;6.63;;
23302;SDS011;11820;48.738;9.092;2023-06-26T03:08:55;8.10;;;6.43;;
23302;SDS011;11820;48.738;9.092;2023-06-26T03:11:20;7.80;;;7.00;;
23302;SDS011;11820;48.738;9.092;2023-06-26T03:13:45;10.43;;;7.10;;
23302;SDS011;11820;48.738;9.092;2023-06-26T03:16:11;7.60;;;6.90;;
23302;SDS011;11820;48.738;9.092;2023-06-26T03:18:36;7.87;;;7.07;;
23302;SDS011;11820;48.738;9.092;2023-06-26T03:21:01;6.83;;;6.17;;
23302;SDS011;11820;48.738;9.092;2023-06-26T03:23:27;7.60;;;6.90;;
23302;SDS011;11820;48.738;9.092;2023-06-26T03:25:52;7.83;;;7.10;;
23302;SDS011;11820;48.738;9.092;2023-06-26T03:28:18;8.20;;;7.30;;
23302;SDS011;11820;48.738;9.092;2023-06-26T03:30:43;8.70;;;7.40;;
23302;SDS011;11820;48.738;9.092;2023-06-26T03:33:08;7.50;;;6.80;;
23302;SDS011;11820;48.738;9.092;2023-06-26T03:35:34;7.60;;;6.80;;
23302;SDS011;11820;48.738;9.092;2023-06-26T03:37:59;7.00;;;6.33;;
23302;SDS011;11820;48.738;9.092;2023-06-26T03:40:25;7.70;;;6.93;;
23302;SDS011;11820;48.738;9.092;2023-06-26T03:42:51;7.63;;;6.80;;
23302;SDS011;11820;48.738;9.092;2023-06-26T03:45:16;8.20;;;7.07;;
23302;SDS011;11820;48.738;9.092;2023-06-26T03:47:42;8.10;;;7.30;;
23302;SDS011;11820;48.738;9.092;2023-06-26T03:50:08;8.17;;;7.33;;
23302;SDS011;11820;48.738;9.092;2023-06-26T03:52:33;7.10;;;6.40;;
23302;SDS011;11820;48.738;9.092;2023-06-26T03:54:59;7.67;;;6.87;;
23302;SDS011;11820;48.738;9.092;2023-06-26T03:57:25;7.80;;;7.10;;
23302;SDS011;11820;48.738;9.092;2023-06-26T03:59:51;7.10;;;6.27;;
23302;SDS011;11820;48.738;9.092;2023-06-26T04:02:17;7.30;;;6.57;;
23302;SDS011;11820;48.738;9.092;2023-06-26T04:04:42;6.53;;;5.93;;
23302;SDS011;11820;48.738;9.092;2023-06-26T04:07:07;9.17;;;7.10;;
23302;SDS011;11820;48.738;9.092;2023-06-26T04:09:33;6.90;;;6.23;;
23302;SDS011;11820;48.738;9.092;2023-06-26T04:11:58;7.40;;;6.40;;
23302;SDS011;11820;48.738;9.092;2023-06-26T04:14:23;7.17;;;6.47;;
23302;SDS011;11820;48.738;9.092;2023-06-26T04:16:48;7.50;;;6.80;;
23302;SDS011;11820;48.738;9.092;2023-06-26T04:19:14;7.57;;;6.87;;
23302;SDS011;11820;48.738;9.092;2023-06-26T04:21:39;7.23;;;6.30;;
23302;SDS011;11820;48.738;9.092;2023-06-26T04:24:05;6.93;;;6.23;;
23302;SDS011;11820;48.738;9.092;2023-06-26T04:26:30;7.30;;;6.33;;
23302;SDS011;11820;48.738;9.092;2023-06-26T04:28:56;6.77;;;6.17;;
23302;SDS011;11820;48.738;9.092;2023-06-26T04:31:21;7.07;;;6.33;;
23302;SDS011;11820;48.738;9.092;2023-06-26T04:33:47;7.20;;;6.50;;
23302;SDS011;11820;48.738;9.092;2023-06-26T04:36:15;7.67;;;6.67;;
23302;SDS011;11820;48.738;9.092;2023-06-26T04:38:44;6.97;;;6.27;;
23302;SDS011;11820;48.738;9.092;2023-06-26T04:41:09;6.70;;;6.10;;
23302;SDS011;11820;48.738;9.092;2023-06-26T04:43:34;7.23;;;6.53;;
23302;SDS011;11820;48.738;9.092;2023-06-26T04:46:02;7.23;;;6.53;;
23302;SDS011;11820;48.738;9.092;2023-06-26T04:48:27;6.30;;;5.63;;
23302;SDS011;11820;48.738;9.092;2023-06-26T04:50:53;6.90;;;6.30;;
23302;SDS011;11820;48.738;9.092;2023-06-26T04:53:20;7.10;;;6.30;;
23302;SDS011;11820;48.738;9.092;2023-06-26T04:55:46;7.90;;;6.80;;
23302;SDS011;11820;48.738;9.092;2023-06-26T04:58:11;9.23;;;6.43;;
23302;SDS011;11820;48.738;9.092;2023-06-26T05:00:36;7.30;;;6.27;;
23302;SDS011;11820;48.738;9.092;2023-06-26T05:03:02;6.90;;;6.20;;
23302;SDS011;11820;48.738;9.092;2023-06-26T05:05:27;7.00;;;6.30;;
23302;SDS011;11820;48.738;9.092;2023-06-26T05:07:54;8.63;;;6.37;;
23302;SDS011;11820;48.738;9.092;2023-06-26T05:10:20;7.03;;;6.17;;
23302;SDS011;11820;48.738;9.092;2023-06-26T05:12:45;6.97;;;6.27;;
23302;SDS011;11820;48.738;9.092;2023-06-26T05:15:10;7.00;;;6.10;;
23302;SDS011;11820;48.738;9.092;2023-06-26T05:17:36;8.30;;;6.90;;
23302;SDS011;11820;48.738;9.092;2023-06-26T05:20:01;6.93;;;6.07;;
23302;SDS011;11820;48.738;9.092;2023-06-26T05:22:28;7.87;;;7.07;;
23302;SDS011;11820;48.738;9.092;2023-06-26T05:24:54;6.93;;;6.23;;
23302;SDS011;11820;48.738;9.092;2023-06-26T05:27:20;7.00;;;6.33;;
23302;SDS011;11820;48.738;9.092;2023-06-26T05:29:47;7.40;;;6.70;;
23302;SDS011;11820;48.738;9.092;2023-06-26T05:32:14;8.37;;;6.40;;
23302;SDS011;11820;48.738;9.092;2023-06-26T05:34:47;8.00;;;5.47;;
23302;SDS011;11820;48.738;9.092;2023-06-26T05:37:22;6.20;;;5.60;;
23302;SDS011;11820;48.738;9.092;2023-06-26T05:39:49;6.67;;;6.07;;
23302;SDS011;11820;48.738;9.092;2023-06-26T05:42:15;7.00;;;5.93;;
23302;SDS011;11820;48.738;9.092;2023-06-26T05:44:41;6.67;;;5.73;;
23302;SDS011;11820;48.738;9.092;2023-06-26T05:47:06;6.73;;;5.90;;
23302;SDS011;11820;48.738;9.092;2023-06-26T05:49:31;7.43;;;6.73;;
23302;SDS011;11820;48.738;9.092;2023-06-26T05:51:57;6.70;;;6.10;;
23302;SDS011;11820;48.738;9.092;2023-06-26T05:54:23;6.57;;;5.83;;
23302;SDS011;11820;48.738;9.092;2023-06-26T05:56:49;6.60;;;5.90;;
23302;SDS011;11820;48.738;9.092;2023-06-26T05:59:21;6.37;;;5.70;;
23302;SDS011;11820;48.738;9.092;2023-06-26T06:01:47;6.50;;;5.90;;
23302;SDS011;11820;48.738;9.092;2023-06-26T06:04:13;9.57;;;5.90;;
23302;SDS011;11820;48.738;9.092;2023-06-26T06:06:38;7.23;;;5.77;;
23302;SDS011;11820;48.738;9.092;2023-06-26T06:09:03;7.33;;;5.97;;
23302;SDS011;11820;48.738;9.092;2023-06-26T06:11:28;6.20;;;5.07;;
23302;SDS011;11820;48.738;9.092;2023-06-26T06:13:54;7.37;;;6.10;;
23302;SDS011;11820;48.738;9.092;2023-06-26T06:16:19;5.93;;;5.43;;
23302;SDS011;11820;48.738;9.092;2023-06-26T06:18:44;5.97;;;5.47;;
23302;SDS011;11820;48.738;9.092;2023-06-26T06:21:10;8.17;;;7.37;;
23302;SDS011;11820;48.738;9.092;2023-06-26T06:23:35;6.60;;;5.93;;
23302;SDS011;11820;48.738;9.092;2023-06-26T06:26:00;6.63;;;5.60;;
23302;SDS011;11820;48.738;9.092;2023-06-26T06:28:26;6.10;;;5.50;;
23302;SDS011;11820;48.738;9.092;2023-06-26T06:30:51;9.10;;;5.63;;
23302;SDS011;11820;48.738;9.092;2023-06-26T06:33:16;6.60;;;5.63;;
23302;SDS011;11820;48.738;9.092;2023-06-26T06:35:42;8.80;;;5.80;;
23302;SDS011;11820;48.738;9.092;2023-06-26T06:38:07;6.27;;;5.67;;
23302;SDS011;11820;48.738;9.092;2023-06-26T06:40:32;6.83;;;6.13;;
23302;SDS011;11820;48.738;9.092;2023-06-26T06:42:58;7.17;;;5.63;;
23302;SDS011;11820;48.738;9.092;2023-06-26T06:45:23;6.53;;;5.73;;
23302;SDS011;11820;48.738;9.092;2023-06-26T06:47:48;6.17;;;5.67;;
23302;SDS011;11820;48.738;9.092;2023-06-26T06:50:13;5.57;;;4.97;;
23302;SDS011;11820;48.738;9.092;2023-06-26T06:52:40;5.70;;;5.20;;
23302;SDS011;11820;48.738;9.092;2023-06-26T06:55:07;6.47;;;5.80;;
23302;SDS011;11820;48.738;9.092;2023-06-26T06:57:35;6.47;;;5.50;;
23302;SDS011;11820;48.738;9.092;2023-06-26T07:00:03;6.17;;;5.43;;
23302;SDS011;11820;48.738;9.092;2023-06-26T07:02:36;5.77;;;5.17;;
23302;SDS011;11820;48.738;9.092;2023-06-26T07:05:05;6.63;;;5.93;;
23302;SDS011;11820;48.738;9.092;2023-06-26T07:07:31;8.90;;;5.40;;
23302;SDS011;11820;48.738;9.092;2023-06-26T07:10:02;7.93;;;5.43;;
23302;SDS011;11820;48.738;9.092;2023-06-26T07:12:29;6.33;;;5.73;;
23302;SDS011;11820;48.738;9.092;2023-06-26T07:14:55;6.73;;;5.47;;
23302;SDS011;11820;48.738;9.092;2023-06-26T07:17:21;6.23;;;5.53;;
23302;SDS011;11820;48.738;9.092;2023-06-26T07:19:47;7.43;;;6.07;;
23302;SDS011;11820;48.738;9.092;2023-06-26T07:22:13;8.63;;;5.93;;
23302;SDS011;11820;48.738;9.092;2023-06-26T07:24:38;5.93;;;5.07;;
23302;SDS011;11820;48.738;9.092;2023-06-26T07:27:04;6.67;;;6.03;;
23302;SDS011;11820;48.738;9.092;2023-06-26T07:29:29;9.07;;;6.10;;
23302;SDS011;11820;48.738;9.092;2023-06-26T07:31:54;6.60;;;5.93;;
23302;SDS011;11820;48.738;9.092;2023-06-26T07:34:19;13.10;;;5.70;;
23302;SDS011;11820;48.738;9.092;2023-06-26T07:36:45;5.43;;;4.93;;
23302;SDS011;11820;48.738;9.092;2023-06-26T07:39:10;7.13;;;5.10;;
23302;SDS011;11820;48.738;9.092;2023-06-26T07:41:35;6.93;;;6.23;;
23302;SDS011;11820;48.738;9.092;2023-06-26T07:44:01;5.80;;;5.10;;
23302;SDS011;11820;48.738;9.092;2023-06-26T07:46:26;9.63;;;5.77;;
23302;SDS011;11820;48.738;9.092;2023-06-26T07:48:52;5.93;;;5.43;;
23302;SDS011;11820;48.738;9.092;2023-06-26T07:51:18;6.27;;;5.67;;
23302;SDS011;11820;48.738;9.092;2023-06-26T07:53:43;10.47;;;5.57;;
23302;SDS011;11820;48.738;9.092;2023-06-26T07:56:08;5.60;;;5.00;;
23302;SDS011;11820;48.738;9.092;2023-06-26T07:58:34;5.07;;;4.57;;
23302;SDS011;11820;48.738;9.092;2023-06-26T08:00:59;4.53;;;4.13;;
23302;SDS011;11820;48.738;9.092;2023-06-26T08:03:24;4.93;;;4.53;;
23302;SDS011;11820;48.738;9.092;2023-06-26T08:05:50;4.90;;;4.40;;
23302;SDS011;11820;48.738;9.092;2023-06-26T08:08:15;6.10;;;3.83;;
23302;SDS011;11820;48.738;9.092;2023-06-26T08:10:40;4.97;;;4.47;;
23302;SDS011;11820;48.738;9.092;2023-06-26T08:13:06;5.23;;;4.40;;
23302;SDS011;11820;48.738;9.092;2023-06-26T08:15:31;5.37;;;4.20;;
23302;SDS011;11820;48.738;9.092;2023-06-26T08:17:56;4.73;;;4.33;;
23302;SDS011;11820;48.738;9.092;2023-06-26T08:20:22;7.27;;;4.27;;
23302;SDS011;11820;48.738;9.092;2023-06-26T08:22:47;4.73;;;4.27;;
23302;SDS011;11820;48.738;9.092;2023-06-26T08:25:15;6.67;;;4.30;;
23302;SDS011;11820;48.738;9.092;2023-06-26T08:27:40;5.20;;;4.70;;
23302;SDS011;11820;48.738;9.092;2023-06-26T08:30:06;5.03;;;4.63;;
23302;SDS011;11820;48.738;9.092;2023-06-26T08:32:31;6.30;;;4.40;;
23302;SDS011;11820;48.738;9.092;2023-06-26T08:34:57;4.80;;;4.40;;
23302;SDS011;11820;48.738;9.092;2023-06-26T08:37:22;4.87;;;4.50;;
23302;SDS011;11820;48.738;9.092;2023-06-26T08:39:48;4.70;;;4.30;;
23302;SDS011;11820;48.738;9.092;2023-06-26T08:42:13;5.20;;;4.73;;
23302;SDS011;11820;48.738;9.092;2023-06-26T08:44:38;4.67;;;4.27;;
23302;SDS011;11820;48.738;9.092;2023-06-26T08:47:04;6.93;;;4.80;;
23302;SDS011;11820;48.738;9.092;2023-06-26T08:49:34;5.30;;;4.80;;
23302;SDS011;11820;48.738;9.092;2023-06-26T08:52:10;5.10;;;4.60;;
23302;SDS011;11820;48.738;9.092;2023-06-26T08:54:43;5.10;;;4.60;;
23302;SDS011;11820;48.738;9.092;2023-06-26T08:57:12;4.73;;;4.33;;
23302;SDS011;11820;48.738;9.092;2023-06-26T08:59:42;7.00;;;5.00;;
23302;SDS011;11820;48.738;9.092;2023-06-26T09:02:08;5.93;;;4.53;;
23302;SDS011;11820;48.738;9.092;2023-06-26T09:04:33;5.23;;;4.73;;
23302;SDS011;11820;48.738;9.092;2023-06-26T09:07:00;5.47;;;4.53;;
23302;SDS011;11820;48.738;9.092;2023-06-26T09:09:25;5.30;;;4.77;;
23302;SDS011;11820;48.738;9.092;2023-06-26T09:11:50;4.90;;;4.47;;
23302;SDS011;11820;48.738;9.092;2023-06-26T09:14:15;5.67;;;5.17;;
23302;SDS011;11820;48.738;9.092;2023-06-26T09:16:41;7.03;;;5.40;;
23302;SDS011;11820;48.738;9.092;2023-06-26T09:19:10;5.10;;;4.60;;
23302;SDS011;11820;48.738;9.092;2023-06-26T09:21:37;6.77;;;5.17;;
23302;SDS011;11820;48.738;9.092;2023-06-26T09:24:06;5.67;;;5.17;;
23302;SDS011;11820;48.738;9.092;2023-06-26T09:26:33;6.70;;;5.10;;
23302;SDS011;11820;48.738;9.092;2023-06-26T09:29:00;5.07;;;4.60;;
23302;SDS011;11820;48.738;9.092;2023-06-26T09:31:26;5.50;;;5.00;;
23302;SDS011;11820;48.738;9.092;2023-06-26T09:33:55;5.60;;;5.10;;
23302;SDS011;11820;48.738;9.092;2023-06-26T09:36:26;5.30;;;4.80;;
23302;SDS011;11820;48.738;9.092;2023-06-26T09:38:53;6.37;;;5.17;;
23302;SDS011;11820;48.738;9.092;2023-06-26T09:41:19;5.70;;;5.20;;
23302;SDS011;11820;48.738;9.092;2023-06-26T09:43:45;6.60;;;4.77;;
23302;SDS011;11820;48.738;9.092;2023-06-26T09:46:15;5.77;;;5.23;;
23302;SDS011;11820;48.738;9.092;2023-06-26T09:51:36;7.40;;;5.17;;
23302;SDS011;11820;48.738;9.092;2023-06-26T09:54:03;5.40;;;4.90;;
23302;SDS011;11820;48.738;9.092;2023-06-26T09:56:30;5.13;;;4.63;;
23302;SDS011;11820;48.738;9.092;2023-06-26T09:58:56;5.50;;;5.00;;
23302;SDS011;11820;48.738;9.092;2023-06-26T10:01:23;5.17;;;4.77;;
23302;SDS011;11820;48.738;9.092;2023-06-26T10:03:49;5.43;;;4.93;;
23302;SDS011;11820;48.738;9.092;2023-06-26T10:06:14;5.37;;;4.87;;
23302;SDS011;11820;48.738;9.092;2023-06-26T10:08:44;5.30;;;4.90;;
23302;SDS011;11820;48.738;9.092;2023-06-26T10:11:11;5.10;;;4.70;;
23302;SDS011;11820;48.738;9.092;2023-06-26T10:13:42;5.70;;;5.20;;
23302;SDS011;11820;48.738;9.092;2023-06-26T10:16:11;5.50;;;5.00;;
23302;SDS011;11820;48.738;9.092;2023-06-26T10:18:41;6.70;;;5.33;;
23302;SDS011;11820;48.738;9.092;2023-06-26T10:21:08;5.73;;;5.23;;
23302;SDS011;11820;48.738;9.092;2023-06-26T10:23:36;5.30;;;4.63;;
23302;SDS011;11820;48.738;9.092;2023-06-26T10:26:04;6.60;;;6.10;;
23302;SDS011;11820;48.738;9.092;2023-06-26T10:28:31;5.60;;;5.10;;
23302;SDS011;11820;48.738;9.092;2023-06-26T10:30:59;17.90;;;6.00;;
23302;SDS011;11820;48.738;9.092;2023-06-26T10:33:27;6.47;;;5.73;;
23302;SDS011;11820;48.738;9.092;2023-06-26T10:35:53;6.33;;;5.73;;
23302;SDS011;11820;48.738;9.092;2023-06-26T10:38:50;9.73;;;6.10;;
23302;SDS011;11820;48.738;9.092;2023-06-26T10:41:30;7.80;;;6.37;;
23302;SDS011;11820;48.738;9.092;2023-06-26T10:46:26;6.47;;;5.57;;
23302;SDS011;11820;48.738;9.092;2023-06-26T10:48:58;6.37;;;5.87;;
23302;SDS011;11820;48.738;9.092;2023-06-26T10:51:25;9.37;;;5.77;;
23302;SDS011;11820;48.738;9.092;2023-06-26T10:53:57;6.80;;;6.13;;
23302;SDS011;11820;48.738;9.092;2023-06-26T10:56:44;7.77;;;6.13;;
23302;SDS011;11820;48.738;9.092;2023-06-26T10:59:15;8.20;;;5.47;;
23302;SDS011;11820;48.738;9.092;2023-06-26T11:01:43;6.50;;;5.93;;
23302;SDS011;11820;48.738;9.092;2023-06-26T11:04:11;12.27;;;5.70;;
23302;SDS011;11820;48.738;9.092;2023-06-26T11:06:37;7.43;;;6.50;;
23302;SDS011;11820;48.738;9.092;2023-06-26T11:09:17;8.10;;;6.20;;
23302;SDS011;11820;48.738;9.092;2023-06-26T11:14:20;8.23;;;6.13;;
23302;SDS011;11820;48.738;9.092;2023-06-26T11:16:48;6.10;;;5.43;;
23302;SDS011;11820;48.738;9.092;2023-06-26T11:19:14;7.77;;;6.20;;
23302;SDS011;11820;48.738;9.092;2023-06-26T11:21:41;8.97;;;6.30;;
23302;SDS011;11820;48.738;9.092;2023-06-26T11:24:07;7.00;;;6.40;;
23302;SDS011;11820;48.738;9.092;2023-06-26T11:26:43;6.70;;;6.00;;
23302;SDS011;11820;48.738;9.092;2023-06-26T11:29:11;6.73;;;6.10;;
23302;SDS011;11820;48.738;9.092;2023-06-26T11:31:38;6.57;;;5.90;;
23302;SDS011;11820;48.738;9.092;2023-06-26T11:34:07;7.47;;;6.70;;
23302;SDS011;11820;48.738;9.092;2023-06-26T11:36:37;7.00;;;6.30;;
23302;SDS011;11820;48.738;9.092;2023-06-26T11:39:04;6.40;;;5.80;;
23302;SDS011;11820;48.738;9.092;2023-06-26T11:41:37;6.68;;;6.07;;
23302;SDS011;11820;48.738;9.092;2023-06-26T11:44:04;7.13;;;6.43;;
23302;SDS011;11820;48.738;9.092;2023-06-26T11:46:31;6.87;;;6.13;;
23302;SDS011;11820;48.738;9.092;2023-06-26T11:48:59;7.53;;;6.22;;
23302;SDS011;11820;48.738;9.092;2023-06-26T11:51:26;8.57;;;5.80;;
23302;SDS011;11820;48.738;9.092;2023-06-26T11:53:53;7.10;;;6.40;;
23302;SDS011;11820;48.738;9.092;2023-06-26T11:56:18;8.18;;;6.15;;
23302;SDS011;11820;48.738;9.092;2023-06-26T12:01:40;6.70;;;5.75;;
23302;SDS011;11820;48.738;9.092;2023-06-26T12:04:07;8.77;;;6.30;;
23302;SDS011;11820;48.738;9.092;2023-06-26T12:06:35;8.52;;;6.38;;
23302;SDS011;11820;48.738;9.092;2023-06-26T12:09:02;7.18;;;6.55;;
23302;SDS011;11820;48.738;9.092;2023-06-26T12:11:30;7.67;;;6.40;;
23302;SDS011;11820;48.738;9.092;2023-06-26T12:13:57;6.97;;;6.28;;
23302;SDS011;11820;48.738;9.092;2023-06-26T12:16:24;8.70;;;5.83;;
23302;SDS011;11820;48.738;9.092;2023-06-26T12:18:50;8.80;;;6.63;;
23302;SDS011;11820;48.738;9.092;2023-06-26T12:21:28;11.47;;;6.53;;
23302;SDS011;11820;48.738;9.092;2023-06-26T12:24:02;6.73;;;6.13;;
23302;SDS011;11820;48.738;9.092;2023-06-26T12:26:32;11.48;;;9.77;;
23302;SDS011;11820;48.738;9.092;2023-06-26T12:29:05;7.03;;;5.72;;
23302;SDS011;11820;48.738;9.092;2023-06-26T12:31:31;7.03;;;6.07;;
23302;SDS011;11820;48.738;9.092;2023-06-26T12:33:57;6.35;;;5.85;;
23302;SDS011;11820;48.738;9.092;2023-06-26T12:36:23;7.50;;;5.93;;
23302;SDS011;11820;48.738;9.092;2023-06-26T12:38:48;7.78;;;6.95;;
23302;SDS011;11820;48.738;9.092;2023-06-26T12:41:14;10.00;;;9.10;;
23302;SDS011;11820;48.738;9.092;2023-06-26T12:43:41;7.15;;;6.45;;
23302;SDS011;11820;48.738;9.092;2023-06-26T12:46:07;6.75;;;6.15;;
23302;SDS011;11820;48.738;9.092;2023-06-26T12:48:39;6.80;;;6.10;;
23302;SDS011;11820;48.738;9.092;2023-06-26T12:51:14;6.82;;;5.70;;
23302;SDS011;11820;48.738;9.092;2023-06-26T12:53:41;6.65;;;6.05;;
23302;SDS011;11820;48.738;9.092;2023-06-26T12:56:07;6.07;;;5.47;;
23302;SDS011;11820;48.738;9.092;2023-06-26T12:58:34;8.65;;;6.00;;
23302;SDS011;11820;48.738;9.092;2023-06-26T13:01:01;8.40;;;5.57;;
23302;SDS011;11820;48.738;9.092;2023-06-26T13:03:28;8.27;;;5.72;;
23302;SDS011;11820;48.738;9.092;2023-06-26T13:05:53;6.50;;;5.90;;
23302;SDS011;11820;48.738;9.092;2023-06-26T13:08:19;6.68;;;5.95;;
23302;SDS011;11820;48.738;9.092;2023-06-26T13:10:44;7.45;;;5.95;;
23302;SDS011;11820;48.738;9.092;2023-06-26T13:13:10;6.30;;;5.68;;
23302;SDS011;11820;48.738;9.092;2023-06-26T13:15:36;6.93;;;6.30;;
23302;SDS011;11820;48.738;9.092;2023-06-26T13:18:02;8.02;;;5.68;;
23302;SDS011;11820;48.738;9.092;2023-06-26T13:20:27;9.85;;;6.10;;
23302;SDS011;11820;48.738;9.092;2023-06-26T13:22:53;6.75;;;6.10;;
23302;SDS011;11820;48.738;9.092;2023-06-26T13:25:19;6.75;;;5.97;;
23302;SDS011;11820;48.738;9.092;2023-06-26T13:27:44;6.82;;;5.93;;
23302;SDS011;11820;48.738;9.092;2023-06-26T13:30:10;7.88;;;5.40;;
23302;SDS011;11820;48.738;9.092;2023-06-26T13:32:36;8.63;;;5.55;;
23302;SDS011;11820;48.738;9.092;2023-06-26T13:35:02;6.43;;;4.85;;
23302;SDS011;11820;48.738;9.092;2023-06-26T13:37:28;6.53;;;5.30;;
23302;SDS011;11820;48.738;9.092;2023-06-26T13:39:53;7.57;;;5.20;;
23302;SDS011;11820;48.738;9.092;2023-06-26T13:42:18;5.30;;;4.75;;
23302;SDS011;11820;48.738;9.092;2023-06-26T13:44:44;6.38;;;5.70;;
23302;SDS011;11820;48.738;9.092;2023-06-26T13:47:12;5.78;;;5.22;;
23302;SDS011;11820;48.738;9.092;2023-06-26T13:49:38;6.28;;;4.97;;
23302;SDS011;11820;48.738;9.092;2023-06-26T13:52:04;6.22;;;5.40;;
23302;SDS011;11820;48.738;9.092;2023-06-26T13:54:30;6.35;;;5.68;;
23302;SDS011;11820;48.738;9.092;2023-06-26T13:56:55;5.15;;;4.75;;
23302;SDS011;11820;48.738;9.092;2023-06-26T13:59:22;5.90;;;4.72;;
23302;SDS011;11820;48.738;9.092;2023-06-26T14:01:50;6.85;;;5.35;;
23302;SDS011;11820;48.738;9.092;2023-06-26T14:04:15;5.38;;;4.88;;
23302;SDS011;11820;48.738;9.092;2023-06-26T14:06:40;7.60;;;5.13;;
23302;SDS011;11820;48.738;9.092;2023-06-26T14:09:07;5.30;;;4.35;;
23302;SDS011;11820;48.738;9.092;2023-06-26T14:11:33;5.35;;;4.85;;
23302;SDS011;11820;48.738;9.092;2023-06-26T14:13:59;9.55;;;4.35;;
23302;SDS011;11820;48.738;9.092;2023-06-26T14:16:24;5.50;;;4.30;;
23302;SDS011;11820;48.738;9.092;2023-06-26T14:18:50;4.85;;;3.95;;
23302;SDS011;11820;48.738;9.092;2023-06-26T14:21:15;4.60;;;3.92;;
23302;SDS011;11820;48.738;9.092;2023-06-26T14:23:41;4.53;;;3.97;;
23302;SDS011;11820;48.738;9.092;2023-06-26T14:26:06;7.15;;;3.85;;
23302;SDS011;11820;48.738;9.092;2023-06-26T14:28:31;4.13;;;3.75;;
23302;SDS011;11820;48.738;9.092;2023-06-26T14:30:57;4.30;;;3.83;;
23302;SDS011;11820;48.738;9.092;2023-06-26T14:33:22;4.32;;;3.90;;
23302;SDS011;11820;48.738;9.092;2023-06-26T14:35:47;4.72;;;4.22;;
23302;SDS011;11820;48.738;9.092;2023-06-26T14:38:12;5.47;;;4.97;;
23302;SDS011;11820;48.738;9.092;2023-06-26T14:40:38;4.03;;;3.72;;
23302;SDS011;11820;48.738;9.092;2023-06-26T14:43:03;4.13;;;3.72;;
23302;SDS011;11820;48.738;9.092;2023-06-26T14:45:28;4.25;;;3.30;;
23302;SDS011;11820;48.738;9.092;2023-06-26T14:47:54;3.58;;;3.28;;
23302;SDS011;11820;48.738;9.092;2023-06-26T14:50:19;4.68;;;3.15;;
23302;SDS011;11820;48.738;9.092;2023-06-26T14:52:44;4.38;;;3.33;;
23302;SDS011;11820;48.738;9.092;2023-06-26T14:55:09;4.30;;;3.03;;
23302;SDS011;11820;48.738;9.092;2023-06-26T14:57:35;3.90;;;2.78;;